OYBBC EKAH-EKBI

Flight info

Callsign OYBBC
Flight time 0h 26m
Altitude 4000
Route LOKSA
Aircraft PA24/L-SDGRY/S

Departure

Time 2026-05-06 07:20
Airport Aarhus Airport (EKAH)

Arrival

Time 2026-05-06 07:46
Airport Billund Airport (EKBI)
Time Latitude Longitude Altitude Speed Heading
2026-05-06 07:14 56.30768 10.62167 80 ft 0 kts 276°
2026-05-06 07:16 56.30754 10.62157 88 ft 9 kts 117°
2026-05-06 07:17 56.30709 10.62311 81 ft 12 kts 119°
2026-05-06 07:17 56.30625 10.62386 79 ft 21 kts 220°
2026-05-06 07:17 56.30521 10.62209 78 ft 9 kts 232°
2026-05-06 07:17 56.30518 10.62027 83 ft 20 kts 282°
2026-05-06 07:18 56.30549 10.61746 82 ft 25 kts 279°
2026-05-06 07:18 56.30584 10.61408 82 ft 30 kts 281°
2026-05-06 07:18 56.30622 10.61042 81 ft 28 kts 279°
2026-05-06 07:18 56.30644 10.60790 78 ft 11 kts 271°
2026-05-06 07:19 56.30551 10.60706 81 ft 22 kts 190°
2026-05-06 07:19 56.30445 10.60809 79 ft 26 kts 98°
2026-05-06 07:19 56.30362 10.61589 107 ft 90 kts 98°
2026-05-06 07:19 56.30224 10.62771 389 ft 98 kts 107°
2026-05-06 07:20 56.29631 10.63340 689 ft 112 kts 173°
2026-05-06 07:20 56.29118 10.63366 962 ft 113 kts 178°
2026-05-06 07:20 56.28283 10.63255 1260 ft 126 kts 183°
2026-05-06 07:20 56.27415 10.63012 1577 ft 124 kts 194°
2026-05-06 07:21 56.26632 10.62290 1904 ft 128 kts 208°
2026-05-06 07:21 56.25885 10.61418 2225 ft 133 kts 214°
2026-05-06 07:21 56.25128 10.60336 2469 ft 140 kts 217°
2026-05-06 07:21 56.24337 10.59263 2628 ft 148 kts 215°
2026-05-06 07:22 56.23521 10.58153 2867 ft 145 kts 218°
2026-05-06 07:22 56.22692 10.57032 2986 ft 150 kts 216°
2026-05-06 07:22 56.21867 10.55956 3266 ft 145 kts 215°
2026-05-06 07:22 56.21022 10.54881 3357 ft 152 kts 216°
2026-05-06 07:23 56.20183 10.53784 3593 ft 147 kts 216°
2026-05-06 07:23 56.19350 10.52697 3763 ft 150 kts 216°
2026-05-06 07:23 56.18500 10.51632 3920 ft 147 kts 216°
2026-05-06 07:23 56.17642 10.50539 3947 ft 156 kts 217°
2026-05-06 07:24 56.16774 10.49437 4148 ft 152 kts 215°
2026-05-06 07:24 56.15904 10.48236 4103 ft 162 kts 227°
2026-05-06 07:24 56.15163 10.46790 4327 ft 152 kts 229°
2026-05-06 07:24 56.14434 10.45406 4427 ft 156 kts 229°
2026-05-06 07:25 56.13679 10.43971 4496 ft 158 kts 229°
2026-05-06 07:25 56.12934 10.42546 4654 ft 157 kts 229°
2026-05-06 07:25 56.12183 10.41099 4711 ft 160 kts 229°
2026-05-06 07:25 56.11426 10.39640 4823 ft 157 kts 229°
2026-05-06 07:26 56.10683 10.38187 4820 ft 163 kts 229°
2026-05-06 07:26 56.09892 10.36652 4793 ft 168 kts 229°
2026-05-06 07:26 56.09114 10.35129 4835 ft 164 kts 229°
2026-05-06 07:26 56.08332 10.33601 4790 ft 169 kts 229°
2026-05-06 07:27 56.07532 10.32053 4822 ft 167 kts 229°
2026-05-06 07:27 56.06752 10.30525 4835 ft 166 kts 229°
2026-05-06 07:27 56.05976 10.29005 4826 ft 170 kts 230°
2026-05-06 07:27 56.05175 10.27457 4850 ft 168 kts 229°
2026-05-06 07:28 56.04389 10.25931 4854 ft 166 kts 229°
2026-05-06 07:28 56.03606 10.24410 4886 ft 166 kts 230°
2026-05-06 07:28 56.02006 10.21412 4934 ft 167 kts 227°
2026-05-06 07:29 56.01200 10.19916 4946 ft 166 kts 229°
2026-05-06 07:29 56.00419 10.18405 4965 ft 165 kts 229°
2026-05-06 07:29 55.99649 10.16886 4957 ft 166 kts 230°
2026-05-06 07:29 55.98853 10.15387 4959 ft 166 kts 230°
2026-05-06 07:30 55.98069 10.13868 4978 ft 166 kts 228°
2026-05-06 07:30 55.97289 10.12363 4997 ft 165 kts 230°
2026-05-06 07:30 55.96503 10.10865 5010 ft 165 kts 230°
2026-05-06 07:30 55.95725 10.09352 5031 ft 166 kts 229°
2026-05-06 07:31 55.94936 10.07850 5038 ft 166 kts 229°
2026-05-06 07:31 55.94125 10.06374 5048 ft 167 kts 228°
2026-05-06 07:31 55.93342 10.04862 5056 ft 165 kts 230°
2026-05-06 07:31 55.92558 10.03361 5063 ft 166 kts 229°
2026-05-06 07:32 55.91769 10.01853 5068 ft 166 kts 230°
2026-05-06 07:32 55.90979 10.00348 5068 ft 167 kts 228°
2026-05-06 07:32 55.90164 9.98880 5077 ft 167 kts 229°
2026-05-06 07:32 55.89394 9.97317 5086 ft 167 kts 231°
2026-05-06 07:33 55.88595 9.95801 5092 ft 167 kts 229°
2026-05-06 07:33 55.87802 9.94263 5118 ft 169 kts 229°
2026-05-06 07:33 55.87009 9.92720 5135 ft 169 kts 229°
2026-05-06 07:33 55.86214 9.91182 5156 ft 168 kts 229°
2026-05-06 07:34 55.85424 9.89656 5169 ft 167 kts 229°
2026-05-06 07:34 55.84648 9.88153 5168 ft 167 kts 229°
2026-05-06 07:34 55.83895 9.86557 5180 ft 169 kts 234°
2026-05-06 07:34 55.83176 9.84905 5199 ft 168 kts 234°
2026-05-06 07:35 55.82474 9.83240 5200 ft 167 kts 236°
2026-05-06 07:35 55.81763 9.81595 5205 ft 168 kts 234°
2026-05-06 07:35 55.81089 9.79885 5190 ft 170 kts 244°
2026-05-06 07:35 55.80578 9.77994 5180 ft 168 kts 248°
2026-05-06 07:36 55.80098 9.76120 5224 ft 165 kts 249°
2026-05-06 07:36 55.79610 9.74253 5209 ft 168 kts 246°
2026-05-06 07:36 55.79114 9.72393 5218 ft 166 kts 250°
2026-05-06 07:36 55.78649 9.70523 5216 ft 166 kts 248°
2026-05-06 07:37 55.78174 9.68647 5219 ft 168 kts 249°
2026-05-06 07:37 55.77869 9.66667 5196 ft 166 kts 262°
2026-05-06 07:37 55.77658 9.64671 5241 ft 163 kts 262°
2026-05-06 07:37 55.77444 9.62688 5234 ft 164 kts 262°
2026-05-06 07:38 55.77224 9.60685 5227 ft 165 kts 262°
2026-05-06 07:38 55.77063 9.58690 5245 ft 163 kts 271°
2026-05-06 07:38 55.77039 9.56697 5247 ft 161 kts 272°
2026-05-06 07:38 55.77030 9.54687 5142 ft 166 kts 272°
2026-05-06 07:39 55.76980 9.52615 5033 ft 169 kts 270°
2026-05-06 07:39 55.76874 9.50542 4974 ft 167 kts 267°
2026-05-06 07:39 55.76762 9.48497 4865 ft 167 kts 270°
2026-05-06 07:39 55.76664 9.46440 4707 ft 168 kts 265°
2026-05-06 07:40 55.76499 9.44384 4600 ft 168 kts 266°
2026-05-06 07:40 55.76353 9.42333 4495 ft 167 kts 266°
2026-05-06 07:40 55.76198 9.40278 4370 ft 168 kts 266°
2026-05-06 07:40 55.76028 9.38208 4144 ft 171 kts 265°
2026-05-06 07:41 55.75847 9.36201 3850 ft 156 kts 263°
2026-05-06 07:41 55.75648 9.34379 3546 ft 149 kts 260°
2026-05-06 07:41 55.75432 9.32541 3100 ft 152 kts 263°
2026-05-06 07:41 55.75266 9.30761 2888 ft 143 kts 263°
2026-05-06 07:42 55.75125 9.29043 2678 ft 138 kts 267°
2026-05-06 07:42 55.75036 9.27362 2433 ft 136 kts 269°
2026-05-06 07:42 55.74991 9.25714 2218 ft 133 kts 267°
2026-05-06 07:42 55.74904 9.24091 2052 ft 127 kts 268°
2026-05-06 07:43 55.74840 9.22540 1860 ft 128 kts 266°
2026-05-06 07:43 55.74744 9.20978 1695 ft 126 kts 264°
2026-05-06 07:43 55.74604 9.19455 1447 ft 127 kts 263°
2026-05-06 07:43 55.74514 9.17907 1255 ft 124 kts 270°
2026-05-06 07:44 55.74496 9.16455 1108 ft 108 kts 271°
2026-05-06 07:44 55.74518 9.15128 967 ft 104 kts 274°
2026-05-06 07:44 55.74521 9.13944 877 ft 94 kts 273°
2026-05-06 07:44 55.74504 9.12772 817 ft 94 kts 274°
2026-05-06 07:45 55.74499 9.11603 790 ft 91 kts 263°
2026-05-06 07:45 55.74069 9.11422 674 ft 83 kts 116°
2026-05-06 07:45 55.73968 9.12451 460 ft 81 kts 90°
2026-05-06 07:45 55.73982 9.13362 279 ft 68 kts 86°
2026-05-06 07:46 55.73999 9.14077 215 ft 48 kts 87°
2026-05-06 07:46 55.74011 9.14508 211 ft 16 kts 87°
2026-05-06 07:46 55.74019 9.14700 211 ft 16 kts 85°
2026-05-06 07:46 55.74025 9.14901 211 ft 17 kts 86°
2026-05-06 07:47 55.73964 9.14894 214 ft 16 kts 243°
2026-05-06 07:47 55.73902 9.14707 211 ft 19 kts 240°
2026-05-06 07:47 55.73857 9.14469 211 ft 22 kts 260°
2026-05-06 07:47 55.73841 9.14185 211 ft 25 kts 266°
2026-05-06 07:48 55.73832 9.13894 211 ft 20 kts 267°
2026-05-06 07:48 55.73823 9.13675 211 ft 16 kts 268°
2026-05-06 07:48 55.73785 9.13539 211 ft 10 kts 225°
2026-05-06 07:48 55.73751 9.13449 213 ft 8 kts 244°
2026-05-06 07:49 55.73740 9.13370 211 ft 6 kts 265°
2026-05-06 07:49 55.73736 9.13284 211 ft 9 kts 265°
2026-05-06 07:49 55.73733 9.13151 214 ft 12 kts 268°
2026-05-06 07:49 55.73729 9.12981 210 ft 15 kts 274°
2026-05-06 07:50 55.73758 9.12801 210 ft 15 kts 285°
2026-05-06 07:50 55.73770 9.12728 210 ft 3 kts 288°
2026-05-06 07:50 55.73750 9.12701 213 ft 3 kts 201°